Time;durP1;ratioP1;P1;durP2;ratioP2;P2;SDS_P1;SDS_P2;PMS_P1;PMS_P2;Temp;Humidity;BMP_temperature;BMP_pressure;BME280_temperature;BME280_humidity;BME280_pressure;Samples;Min_cycle;Max_cycle;Signal;HPM_P1;HPM_P2
2023/03/31 00:00:53;;;;;;;1999.90;999.90;;;12.10;99.90;;;;;;5034986;28;20188;-71
2023/03/31 00:03:22;;;;;;;1999.90;999.90;;;12.10;99.90;;;;;;5034920;28;20401;-71
2023/03/31 00:05:52;;;;;;;1999.90;999.90;;;12.10;99.90;;;;;;5034955;28;20406;-70
2023/03/31 00:08:18;;;;;;;1999.90;999.90;;;11.90;99.90;;;;;;5034758;28;20467;-70
2023/03/31 00:10:45;;;;;;;1999.90;999.90;;;11.80;99.90;;;;;;5034801;28;20483;-70
2023/03/31 00:13:11;;;;;;;1999.90;999.90;;;11.80;99.90;;;;;;5034911;28;20180;-71
2023/03/31 00:15:37;;;;;;;1999.90;999.90;;;11.80;99.90;;;;;;5034802;28;20422;-71
2023/03/31 00:18:03;;;;;;;1999.90;999.90;;;11.80;99.90;;;;;;5034678;28;20523;-71
2023/03/31 00:20:32;;;;;;;1999.90;999.90;;;11.80;99.90;;;;;;5034792;28;20403;-71
2023/03/31 00:22:58;;;;;;;1999.90;999.90;;;11.70;99.90;;;;;;5034592;28;21056;-71
2023/03/31 00:25:23;;;;;;;1999.90;999.90;;;11.70;99.90;;;;;;5034610;28;20418;-71
2023/03/31 00:27:49;;;;;;;1999.90;999.90;;;11.60;99.90;;;;;;5034384;28;20477;-71
2023/03/31 00:30:15;;;;;;;1999.90;999.90;;;11.60;99.90;;;;;;5034759;28;20645;-71
2023/03/31 00:32:41;;;;;;;1999.90;999.90;;;11.60;99.90;;;;;;5034417;28;20177;-71
2023/03/31 00:35:07;;;;;;;1999.90;999.90;;;11.60;99.90;;;;;;5034417;28;20414;-70
2023/03/31 00:37:33;;;;;;;1999.90;999.90;;;11.50;99.90;;;;;;5034206;28;20431;-71
2023/03/31 00:39:59;;;;;;;1999.90;999.90;;;11.50;99.90;;;;;;5034401;28;20438;-71
2023/03/31 00:42:26;;;;;;;1999.90;999.90;;;11.50;99.90;;;;;;5034338;28;20461;-70
2023/03/31 00:45:13;;;;;;;1999.90;999.90;;;11.50;99.90;;;;;;5034187;28;20415;-71
2023/03/31 00:47:45;;;;;;;1999.90;999.90;;;11.50;99.90;;;;;;5034026;28;20720;-71
2023/03/31 00:50:29;;;;;;;1999.90;999.90;;;11.60;99.90;;;;;;5034105;28;20431;-70
2023/03/31 00:52:59;;;;;;;1999.90;999.90;;;11.50;99.90;;;;;;5034142;28;20415;-72
2023/03/31 00:55:33;;;;;;;1999.90;999.90;;;11.50;99.90;;;;;;5034155;28;20408;-71
2023/03/31 00:58:00;;;;;;;1999.90;999.90;;;11.50;99.90;;;;;;5034087;28;20451;-72
2023/03/31 01:00:26;;;;;;;1999.90;999.90;;;11.50;99.90;;;;;;5033941;28;20450;-71
2023/03/31 01:02:57;;;;;;;1999.90;999.90;;;11.50;99.90;;;;;;5033418;28;20606;-71
2023/03/31 01:05:31;;;;;;;1999.90;999.90;;;11.50;99.90;;;;;;5033668;28;20415;-71
2023/03/31 01:07:59;;;;;;;1999.90;999.90;;;11.50;99.90;;;;;;5033654;28;20466;-71
2023/03/31 01:10:25;;;;;;;1999.90;999.90;;;11.50;99.90;;;;;;5033853;28;20411;-71
2023/03/31 01:12:54;;;;;;;1999.90;999.90;;;11.40;99.90;;;;;;5033637;28;20418;-71
2023/03/31 01:15:21;;;;;;;1999.90;999.90;;;11.50;99.90;;;;;;5032466;28;20764;-71
2023/03/31 01:17:49;;;;;;;1999.90;999.90;;;11.40;99.90;;;;;;5033574;28;20931;-71
2023/03/31 01:20:55;;;;;;;1999.90;999.90;;;11.40;99.90;;;;;;5033594;28;20872;-71
2023/03/31 01:23:45;;;;;;;1999.90;999.90;;;11.40;99.90;;;;;;5019260;28;20518;-71
2023/03/31 01:26:14;;;;;;;1999.90;999.90;;;11.40;99.90;;;;;;5033329;28;20402;-70
2023/03/31 01:28:51;;;;;;;1999.90;999.90;;;11.50;99.90;;;;;;5033435;28;20518;-71
2023/03/31 01:31:35;;;;;;;1999.90;999.90;;;11.50;99.90;;;;;;5033483;28;20414;-71
2023/03/31 01:34:15;;;;;;;1999.90;999.90;;;11.60;99.90;;;;;;5033159;28;20454;-71
2023/03/31 01:37:10;;;;;;;1999.90;999.90;;;11.70;99.90;;;;;;5033463;28;20954;-71
2023/03/31 01:40:00;;;;;;;1999.90;999.90;;;11.70;99.90;;;;;;5018220;28;20423;-71
2023/03/31 01:42:33;;;;;;;1999.90;999.90;;;11.70;99.90;;;;;;5033172;28;20404;-70
2023/03/31 01:45:11;;;;;;;1999.90;999.90;;;11.70;99.90;;;;;;5033069;28;20818;-71
2023/03/31 01:47:45;;;;;;;1999.90;999.90;;;11.70;99.90;;;;;;5032946;28;20491;-71
2023/03/31 01:50:28;;;;;;;1999.90;999.90;;;11.70;99.90;;;;;;5033037;28;20979;-70
2023/03/31 01:53:32;;;;;;;1999.90;999.90;;;11.70;99.90;;;;;;5032792;28;20415;-72
2023/03/31 01:56:13;;;;;;;1999.90;999.90;;;11.80;99.90;;;;;;5026590;28;20465;-71
2023/03/31 01:58:50;;;;;;;1999.90;999.90;;;11.80;99.90;;;;;;5032926;28;20435;-71
2023/03/31 02:01:19;;;;;;;1999.90;999.90;;;11.70;99.90;;;;;;5032712;28;20444;-70
2023/03/31 02:03:51;;;;;;;1999.90;999.90;;;11.70;99.90;;;;;;5032745;28;20761;-71
2023/03/31 02:06:23;;;;;;;1999.90;999.90;;;11.70;99.90;;;;;;5032662;28;20400;-71
2023/03/31 02:08:54;;;;;;;1999.90;999.90;;;11.70;99.90;;;;;;5032747;28;20407;-70
2023/03/31 02:11:21;;;;;;;1999.90;999.90;;;11.70;99.90;;;;;;5032746;28;20783;-71
2023/03/31 02:13:49;;;;;;;1999.90;999.90;;;11.70;99.90;;;;;;5032417;28;20912;-71
2023/03/31 02:16:23;;;;;;;1999.90;999.90;;;11.70;99.90;;;;;;5032354;28;20403;-70
2023/03/31 02:18:52;;;;;;;1999.90;999.90;;;11.70;99.90;;;;;;5032629;28;20795;-70
2023/03/31 02:21:19;;;;;;;1999.90;999.90;;;11.60;99.90;;;;;;5032667;28;20495;-71
2023/03/31 02:23:47;;;;;;;1999.90;999.90;;;11.60;99.90;;;;;;5032252;28;20935;-71
2023/03/31 02:26:16;;;;;;;1999.90;999.90;;;11.60;99.90;;;;;;5032218;28;20884;-70
2023/03/31 02:28:42;;;;;;;1999.90;999.90;;;11.70;99.90;;;;;;5032325;28;20919;-70
2023/03/31 02:31:30;;;;;;;1999.90;999.90;;;11.70;99.90;;;;;;5032350;28;20407;-71
2023/03/31 02:33:55;;;;;;;1999.90;999.90;;;11.70;99.90;;;;;;5032139;28;20533;-70
2023/03/31 02:36:22;;;;;;;1999.90;999.90;;;11.80;99.90;;;;;;5032167;28;20882;-70
2023/03/31 02:39:10;;;;;;;1999.90;999.90;;;11.60;99.90;;;;;;5032223;28;20554;-70
2023/03/31 02:41:37;;;;;;;1999.90;999.90;;;11.60;99.90;;;;;;5032237;28;20407;-70
2023/03/31 02:44:03;;;;;;;1999.90;999.90;;;11.70;99.90;;;;;;5032137;28;20920;-71
2023/03/31 02:46:30;;;;;;;1999.90;999.90;;;11.70;99.90;;;;;;5031950;28;20825;-71
2023/03/31 02:48:59;;;;;;;1999.90;999.90;;;11.60;99.90;;;;;;5032069;28;20407;-70
2023/03/31 02:51:27;;;;;;;1999.90;999.90;;;11.70;99.90;;;;;;5032117;28;20925;-71
2023/03/31 02:54:37;;;;;;;1999.90;999.90;;;11.70;99.90;;;;;;5031903;28;20422;-71
2023/03/31 02:57:05;;;;;;;1999.90;999.90;;;11.70;99.90;;;;;;5021273;28;20450;-71
2023/03/31 02:59:46;;;;;;;1999.90;999.90;;;11.70;99.90;;;;;;5031989;28;20411;-71
2023/03/31 03:02:30;;;;;;;1999.90;999.90;;;11.70;99.90;;;;;;5031930;28;20435;-72
2023/03/31 03:05:20;;;;;;;1999.90;999.90;;;11.60;99.90;;;;;;5031768;28;20403;-71
2023/03/31 03:08:16;;;;;;;1999.90;999.90;;;11.60;99.90;;;;;;5031655;28;20463;-71
2023/03/31 03:11:00;;;;;;;1999.90;999.90;;;11.60;99.90;;;;;;5031813;28;20793;-70
2023/03/31 03:13:46;;;;;;;1999.90;999.90;;;11.50;99.90;;;;;;5032164;28;20399;-72
2023/03/31 03:16:23;;;;;;;1999.90;999.90;;;11.50;99.90;;;;;;5024153;28;20419;-70
2023/03/31 03:19:04;;;;;;;1999.90;999.90;;;11.50;99.90;;;;;;5031814;28;20414;-71
2023/03/31 03:21:30;;;;;;;1999.90;999.90;;;11.40;99.90;;;;;;5031971;28;20411;-70
2023/03/31 03:23:56;;;;;;;1999.90;999.90;;;11.40;99.90;;;;;;5031667;28;20465;-70
2023/03/31 03:26:23;;;;;;;1999.90;999.90;;;11.40;99.90;;;;;;5031638;28;20867;-70
2023/03/31 03:28:52;;;;;;;1999.90;999.90;;;11.50;99.90;;;;;;5035649;28;20917;-71
2023/03/31 03:31:18;;;;;;;1999.90;999.90;;;11.40;99.90;;;;;;5035605;28;20408;-70
2023/03/31 03:33:44;;;;;;;1999.90;999.90;;;11.50;99.90;;;;;;5035452;28;20900;-70
2023/03/31 03:36:10;;;;;;;1999.90;999.90;;;11.50;99.90;;;;;;5035618;28;20408;-70
2023/03/31 03:38:35;;;;;;;1999.90;999.90;;;11.50;99.90;;;;;;5035444;28;20451;-71
2023/03/31 03:41:01;;;;;;;1999.90;999.90;;;11.60;99.90;;;;;;5035533;28;20642;-70
2023/03/31 03:43:27;;;;;;;1999.90;999.90;;;11.60;99.90;;;;;;5035314;28;20172;-70
2023/03/31 03:45:53;;;;;;;1999.90;999.90;;;11.60;99.90;;;;;;5035286;28;20232;-71
2023/03/31 03:48:19;;;;;;;1999.90;999.90;;;11.60;99.90;;;;;;5035287;28;20211;-70
2023/03/31 03:50:45;;;;;;;1999.90;999.90;;;11.60;99.90;;;;;;5035392;28;20511;-71
2023/03/31 03:53:12;;;;;;;1999.90;999.90;;;11.60;99.90;;;;;;5035119;28;20187;-70
2023/03/31 03:55:37;;;;;;;1999.90;999.90;;;11.60;99.90;;;;;;5035109;28;20492;-71
2023/03/31 03:58:03;;;;;;;1999.90;999.90;;;11.60;99.90;;;;;;5035093;28;20551;-70
2023/03/31 04:00:29;;;;;;;1999.90;999.90;;;11.60;99.90;;;;;;5034998;28;20171;-71
2023/03/31 04:02:54;;;;;;;1999.90;999.90;;;11.60;99.90;;;;;;5034953;28;20511;-71
2023/03/31 04:05:20;;;;;;;1999.90;999.90;;;11.60;99.90;;;;;;5035253;28;20513;-71
2023/03/31 04:07:45;;;;;;;1999.90;999.90;;;11.60;99.90;;;;;;5034822;28;20204;-71
2023/03/31 04:10:11;;;;;;;1999.90;999.90;;;11.60;99.90;;;;;;5034963;28;20195;-72
2023/03/31 04:12:37;;;;;;;1999.90;999.90;;;11.60;99.90;;;;;;5034989;28;20259;-72
2023/03/31 04:15:03;;;;;;;1999.90;999.90;;;11.70;99.90;;;;;;5034834;28;20178;-71
2023/03/31 04:17:33;;;;;;;1999.90;999.90;;;11.60;99.90;;;;;;5034729;28;20208;-72
2023/03/31 04:20:09;;;;;;;1999.90;999.90;;;11.60;99.90;;;;;;5034954;28;20411;-71
2023/03/31 04:22:39;;;;;;;1999.90;999.90;;;11.60;99.90;;;;;;5034790;28;20419;-72
2023/03/31 04:25:13;;;;;;;1999.90;999.90;;;11.60;99.90;;;;;;5034632;28;20423;-71
2023/03/31 04:27:45;;;;;;;1999.90;999.90;;;11.50;99.90;;;;;;5034612;28;20459;-71
2023/03/31 04:30:21;;;;;;;1999.90;999.90;;;11.50;99.90;;;;;;5034694;28;20411;-71
2023/03/31 04:32:51;;;;;;;1999.90;999.90;;;11.40;99.90;;;;;;5034416;28;20494;-71
2023/03/31 04:35:19;;;;;;;1999.90;999.90;;;11.40;99.90;;;;;;5034314;28;20414;-71
2023/03/31 04:37:49;;;;;;;1999.90;999.90;;;11.30;99.90;;;;;;5033995;28;20427;-72
2023/03/31 04:40:16;;;;;;;1999.90;999.90;;;11.30;99.90;;;;;;5033738;28;20418;-71
2023/03/31 04:42:42;;;;;;;1999.90;999.90;;;11.30;99.90;;;;;;5034202;28;20481;-72
2023/03/31 04:45:09;;;;;;;1999.90;999.90;;;11.20;99.90;;;;;;5034317;28;20996;-72
2023/03/31 04:47:34;;;;;;;1999.90;999.90;;;11.30;99.90;;;;;;5034009;28;20469;-71
2023/03/31 04:50:00;;;;;;;1999.90;999.90;;;11.20;99.90;;;;;;5034184;28;20489;-71
2023/03/31 04:52:25;;;;;;;1999.90;999.90;;;11.40;99.90;;;;;;5034289;28;20586;-71
2023/03/31 04:54:51;;;;;;;1999.90;999.90;;;11.30;99.90;;;;;;5033983;28;20173;-71
2023/03/31 04:57:16;;;;;;;1999.90;999.90;;;11.40;99.90;;;;;;5033989;28;20564;-71
2023/03/31 04:59:42;;;;;;;1999.90;999.90;;;11.50;99.90;;;;;;5034019;28;20202;-71
2023/03/31 05:02:08;;;;;;;1999.90;999.90;;;11.50;99.90;;;;;;5033925;28;20184;-71
2023/03/31 05:04:33;;;;;;;1999.90;999.90;;;11.60;99.90;;;;;;5033789;28;20219;-71
2023/03/31 05:06:59;;;;;;;1999.90;999.90;;;11.70;99.90;;;;;;5033689;28;20284;-71
2023/03/31 05:09:24;;;;;;;1999.90;999.90;;;11.70;99.90;;;;;;5033940;28;20172;-71
2023/03/31 05:11:50;;;;;;;1999.90;999.90;;;11.80;99.90;;;;;;5033887;28;20172;-71
2023/03/31 05:14:16;;;;;;;1999.90;999.90;;;11.80;99.90;;;;;;5033597;28;20268;-70
2023/03/31 05:16:42;;;;;;;1999.90;999.90;;;11.90;99.90;;;;;;5033625;28;20267;-70
2023/03/31 05:19:07;;;;;;;1999.90;999.90;;;12.00;99.90;;;;;;5033698;28;20168;-71
2023/03/31 05:21:33;;;;;;;1999.90;999.90;;;12.00;99.90;;;;;;5033608;28;20400;-71
2023/03/31 05:23:58;;;;;;;1999.90;999.90;;;12.10;99.90;;;;;;5033472;28;20184;-70
2023/03/31 05:26:25;;;;;;;1999.90;999.90;;;12.30;99.90;;;;;;5033349;28;20178;-70
2023/03/31 05:28:51;;;;;;;1999.90;999.90;;;12.10;99.90;;;;;;5033525;28;20252;-70
2023/03/31 05:31:18;;;;;;;1999.90;999.90;;;12.20;99.90;;;;;;5033431;28;20902;-72
2023/03/31 05:33:44;;;;;;;1999.90;999.90;;;12.10;99.90;;;;;;5033128;28;20930;-70
2023/03/31 05:36:15;;;;;;;1999.90;999.90;;;12.20;99.90;;;;;;5033271;28;20405;-70
2023/03/31 05:38:41;;;;;;;1999.90;999.90;;;12.10;99.90;;;;;;5033200;28;20679;-70
2023/03/31 05:41:08;;;;;;;1999.90;999.90;;;12.10;99.90;;;;;;5033294;28;20419;-70
2023/03/31 05:43:35;;;;;;;1999.90;999.90;;;12.10;99.90;;;;;;5033014;28;20776;-70
2023/03/31 05:46:01;;;;;;;1999.90;999.90;;;12.00;99.90;;;;;;5033024;28;20461;-70
2023/03/31 05:48:26;;;;;;;1999.90;999.90;;;12.00;99.90;;;;;;5033067;28;20970;-71
2023/03/31 05:50:56;;;;;;;1999.90;999.90;;;12.00;99.90;;;;;;5032841;28;20408;-70
2023/03/31 05:53:22;;;;;;;1999.90;999.90;;;12.00;99.90;;;;;;5033052;28;20183;-70
2023/03/31 05:55:48;;;;;;;1999.90;999.90;;;12.00;99.90;;;;;;5033002;28;20412;-71
2023/03/31 05:58:13;;;;;;;1999.90;999.90;;;12.10;99.90;;;;;;5032817;28;20224;-70
2023/03/31 06:00:39;;;;;;;1999.90;999.90;;;12.10;99.90;;;;;;5032778;28;20272;-70
2023/03/31 06:03:06;;;;;;;1999.90;999.90;;;12.10;99.90;;;;;;5032759;28;20188;-70
2023/03/31 06:05:33;;;;;;;1999.90;999.90;;;12.10;99.90;;;;;;5033065;28;20885;-70
2023/03/31 06:07:59;;;;;;;1999.90;999.90;;;12.10;99.90;;;;;;5032628;28;20590;-70
2023/03/31 06:10:25;;;;;;;1999.90;999.90;;;12.10;99.90;;;;;;5032717;28;20495;-71
2023/03/31 06:12:50;;;;;;;1999.90;999.90;;;12.00;99.90;;;;;;5032465;28;20229;-71
2023/03/31 06:15:16;;;;;;;1999.90;999.90;;;11.90;99.90;;;;;;5032651;28;20179;-70
2023/03/31 06:17:41;;;;;;;1999.90;999.90;;;11.80;99.90;;;;;;5032575;28;20311;-70
2023/03/31 06:20:08;;;;;;;1999.90;999.90;;;11.80;99.90;;;;;;5032695;28;20330;-70
2023/03/31 06:22:33;;;;;;;1999.90;999.90;;;11.80;99.90;;;;;;5032662;28;20181;-71
2023/03/31 06:24:59;;;;;;;1999.90;999.90;;;11.70;99.90;;;;;;5032364;28;20419;-70
2023/03/31 06:27:24;;;;;;;1999.90;999.90;;;11.60;99.90;;;;;;5032178;28;20695;-71
2023/03/31 06:29:50;;;;;;;1999.90;999.90;;;11.60;99.90;;;;;;5032271;28;20180;-70
2023/03/31 06:32:17;;;;;;;1999.90;999.90;;;11.60;99.90;;;;;;5032520;28;20192;-70
2023/03/31 06:34:42;;;;;;;1999.90;999.90;;;11.70;99.90;;;;;;5032164;28;20760;-70
2023/03/31 06:37:08;;;;;;;1999.90;999.90;;;11.70;99.90;;;;;;5032107;28;20196;-70
2023/03/31 06:39:33;;;;;;;1999.90;999.90;;;11.80;99.90;;;;;;5032267;28;20211;-70
2023/03/31 06:41:59;;;;;;;1999.90;999.90;;;11.80;99.90;;;;;;5032234;28;20599;-69
2023/03/31 06:44:24;;;;;;;1999.90;999.90;;;11.90;99.90;;;;;;5032050;28;20177;-70
2023/03/31 06:46:50;;;;;;;1999.90;999.90;;;12.00;99.90;;;;;;5032218;28;20215;-70
2023/03/31 06:49:16;;;;;;;1999.90;999.90;;;12.00;99.90;;;;;;5032197;28;20202;-70
2023/03/31 06:51:41;;;;;;;1999.90;999.90;;;12.00;99.90;;;;;;5032280;28;20174;-70
2023/03/31 06:54:07;;;;;;;1999.90;999.90;;;12.00;99.90;;;;;;5031909;28;20207;-70
2023/03/31 06:56:33;;;;;;;1999.90;999.90;;;12.20;99.90;;;;;;5031864;28;20186;-70
2023/03/31 06:58:59;;;;;;;1999.90;999.90;;;12.10;99.90;;;;;;5032025;28;20179;-70
2023/03/31 07:01:24;;;;;;;1999.90;999.90;;;12.20;99.90;;;;;;5031164;28;20423;-70
2023/03/31 07:03:50;;;;;;;1999.90;999.90;;;12.20;99.90;;;;;;5031785;28;20271;-70
2023/03/31 07:06:16;;;;;;;1999.90;999.90;;;12.20;99.90;;;;;;5031726;28;20189;-70
2023/03/31 07:08:41;;;;;;;1999.90;999.90;;;12.40;99.90;;;;;;5031834;28;20201;-70
2023/03/31 07:11:07;;;;;;;1999.90;999.90;;;12.40;99.90;;;;;;5031827;28;20166;-70
2023/03/31 07:13:32;;;;;;;1999.90;999.90;;;12.50;99.90;;;;;;5031615;28;20177;-70
2023/03/31 07:15:58;;;;;;;1999.90;999.90;;;12.50;99.90;;;;;;5031797;28;20901;-70
2023/03/31 07:18:31;;;;;;;1999.90;999.90;;;12.60;99.90;;;;;;5031750;28;20310;-71
2023/03/31 07:20:58;;;;;;;1999.90;999.90;;;12.60;99.90;;;;;;5031932;28;20220;-69
2023/03/31 07:23:23;;;;;;;1999.90;999.90;;;12.70;99.90;;;;;;5031684;28;20408;-69
2023/03/31 07:25:49;;;;;;;1999.90;999.90;;;12.70;99.90;;;;;;5031753;28;20409;-70
2023/03/31 07:28:15;;;;;;;1999.90;999.90;;;12.70;99.90;;;;;;5031115;28;20250;-69
2023/03/31 07:30:41;;;;;;;1999.90;999.90;;;12.80;99.90;;;;;;5031979;28;20201;-70
2023/03/31 07:33:06;;;;;;;1999.90;999.90;;;12.80;99.90;;;;;;5031572;28;20921;-70
2023/03/31 07:35:32;;;;;;;1999.90;999.90;;;12.90;99.90;;;;;;5031405;28;20256;-71
2023/03/31 07:37:58;;;;;;;1999.90;999.90;;;13.00;99.90;;;;;;5031510;28;20189;-70
2023/03/31 07:40:26;;;;;;;1999.90;999.90;;;13.10;99.90;;;;;;5031702;28;20261;-70
2023/03/31 07:42:52;;;;;;;1999.90;999.90;;;13.20;99.90;;;;;;5031332;28;20275;-70
2023/03/31 07:45:19;;;;;;;1999.90;999.90;;;13.30;99.90;;;;;;5031637;28;20460;-70
2023/03/31 07:47:45;;;;;;;1999.90;999.90;;;13.40;99.90;;;;;;5031362;28;20461;-70
2023/03/31 07:50:12;;;;;;;1999.90;999.90;;;13.50;99.90;;;;;;5031514;28;20397;-70
2023/03/31 07:52:38;;;;;;;1999.90;999.90;;;13.60;99.90;;;;;;5031544;28;20414;-70
2023/03/31 07:55:06;;;;;;;1999.90;999.90;;;13.60;99.90;;;;;;5031247;28;20488;-70
2023/03/31 07:57:32;;;;;;;1999.90;999.90;;;13.60;99.90;;;;;;5031276;28;20432;-70
2023/03/31 07:59:58;;;;;;;1999.90;999.90;;;13.60;99.90;;;;;;5031466;28;20974;-70
2023/03/31 08:02:23;;;;;;;1999.90;999.90;;;13.60;99.90;;;;;;5031181;28;20433;-70
2023/03/31 08:04:49;;;;;;;1999.90;999.90;;;13.60;99.90;;;;;;5031236;28;20259;-70
2023/03/31 08:07:15;;;;;;;1999.90;999.90;;;13.60;99.90;;;;;;5031167;28;20240;-70
2023/03/31 08:09:43;;;;;;;1999.90;999.90;;;13.60;99.90;;;;;;5031224;28;20791;-69
2023/03/31 08:12:09;;;;;;;1999.90;999.90;;;13.70;99.90;;;;;;5031152;28;20410;-70
2023/03/31 08:14:35;;;;;;;1999.90;999.90;;;13.70;99.90;;;;;;5034697;28;20909;-70
2023/03/31 08:17:00;;;;;;;1999.90;999.90;;;13.80;99.90;;;;;;5034703;28;20195;-70
2023/03/31 08:19:27;;;;;;;1999.90;999.90;;;13.80;99.90;;;;;;5034833;28;20173;-70
2023/03/31 08:21:52;;;;;;;1999.90;999.90;;;13.80;99.90;;;;;;5034788;28;20173;-70
2023/03/31 08:24:18;;;;;;;1999.90;999.90;;;13.90;99.90;;;;;;5034380;28;20924;-70
2023/03/31 08:26:44;;;;;;;1999.90;999.90;;;13.90;99.90;;;;;;5034393;28;20217;-70
2023/03/31 08:29:09;;;;;;;1999.90;999.90;;;13.80;99.90;;;;;;5034759;28;20169;-69
2023/03/31 08:31:35;;;;;;;1999.90;999.90;;;13.90;99.90;;;;;;5034609;28;20668;-70
2023/03/31 08:34:01;;;;;;;1999.90;999.90;;;13.90;99.90;;;;;;5034442;28;20249;-70
2023/03/31 08:36:28;;;;;;;1999.90;999.90;;;13.90;99.90;;;;;;5034437;28;20597;-70
2023/03/31 08:38:54;;;;;;;1999.90;999.90;;;13.80;99.90;;;;;;5034420;28;20408;-70
2023/03/31 08:41:30;;;;;;;1999.90;999.90;;;13.80;99.90;;;;;;5034361;28;20403;-71
2023/03/31 08:43:58;;;;;;;1999.90;999.90;;;14.00;99.90;;;;;;5034412;28;20412;-70
2023/03/31 08:46:26;;;;;;;1999.90;999.90;;;14.40;99.90;;;;;;5034093;28;20774;-70
2023/03/31 08:48:55;;;;;;;1999.90;999.90;;;14.30;99.90;;;;;;5034229;28;20969;-70
2023/03/31 08:51:26;;;;;;;1999.90;999.90;;;14.50;99.90;;;;;;5034179;28;20839;-70
2023/03/31 08:54:07;;;;;;;1999.90;999.90;;;14.60;99.90;;;;;;5033961;28;20379;-69
2023/03/31 08:56:40;;;;;;;1999.90;999.90;;;14.70;99.90;;;;;;5034064;28;20407;-71
2023/03/31 08:59:21;;;;;;;1999.90;999.90;;;14.90;99.90;;;;;;5034087;28;20434;-71
2023/03/31 09:01:55;;;;;;;1999.90;999.90;;;14.90;99.90;;;;;;5034004;28;20423;-70
2023/03/31 09:04:32;;;;;;;1999.90;999.90;;;15.00;99.90;;;;;;5033864;28;20792;-70
2023/03/31 09:07:19;;;;;;;1999.90;999.90;;;15.00;99.90;;;;;;5033881;28;20537;-70
2023/03/31 09:10:09;;;;;;;1999.90;999.90;;;15.00;99.90;;;;;;5033766;28;20402;-71
2023/03/31 09:12:41;;;;;;;1999.90;999.90;;;15.00;99.90;;;;;;5034259;28;20424;-69
2023/03/31 09:15:21;;;;;;;1999.90;999.90;;;15.00;99.90;;;;;;5033737;28;20391;-69
2023/03/31 09:17:50;;;;;;;1999.90;999.90;;;15.00;99.90;;;;;;5033524;28;20438;-70
2023/03/31 09:20:27;;;;;;;1999.90;999.90;;;15.10;99.90;;;;;;5033698;28;20407;-70
2023/03/31 09:23:01;;;;;;;1999.90;999.90;;;15.00;99.90;;;;;;5033367;28;20409;-70
2023/03/31 09:25:32;;;;;;;1999.90;999.90;;;15.10;99.90;;;;;;5032814;28;20402;-70
2023/03/31 09:28:01;;;;;;;1999.90;999.90;;;15.20;99.90;;;;;;5033358;28;20468;-70
2023/03/31 09:30:29;;;;;;;1999.90;999.90;;;15.10;99.90;;;;;;5033574;28;20402;-70
2023/03/31 09:33:21;;;;;;;1999.90;999.90;;;15.10;99.90;;;;;;5033244;28;20459;-70
2023/03/31 09:35:47;;;;;;;1999.90;999.90;;;15.10;99.90;;;;;;5033427;28;20403;-70
2023/03/31 09:38:14;;;;;;;1999.90;999.90;;;14.90;99.90;;;;;;5033128;28;20436;-70
2023/03/31 09:40:41;;;;;;;1999.90;999.90;;;14.90;99.90;;;;;;5033409;28;20176;-70
2023/03/31 09:43:27;;;;;;;1999.90;999.90;;;14.90;99.90;;;;;;5033117;28;20411;-70
2023/03/31 09:45:53;;;;;;;1999.90;999.90;;;14.90;99.90;;;;;;5033128;28;20913;-70
2023/03/31 09:48:25;;;;;;;1999.90;999.90;;;14.90;99.90;;;;;;5033174;28;20459;-70
2023/03/31 09:50:58;;;;;;;1999.90;999.90;;;14.90;99.90;;;;;;5033236;28;20406;-70
2023/03/31 09:53:43;;;;;;;1999.90;999.90;;;14.90;99.90;;;;;;5032802;28;20500;-70
2023/03/31 09:56:10;;;;;;;1999.90;999.90;;;14.90;99.90;;;;;;5032846;28;20406;-70
2023/03/31 09:58:41;;;;;;;1999.90;999.90;;;14.90;99.90;;;;;;5033062;28;20423;-71
2023/03/31 10:01:09;;;;;;;1999.90;999.90;;;14.90;99.90;;;;;;5032892;28;20489;-70
2023/03/31 10:03:53;;;;;;;1999.90;999.90;;;15.00;99.90;;;;;;5032592;28;20439;-70
2023/03/31 10:06:19;;;;;;;1999.90;999.90;;;15.00;99.90;;;;;;5032679;28;20403;-70
2023/03/31 10:08:52;;;;;;;1999.90;999.90;;;15.10;99.90;;;;;;5032533;28;20425;-70
2023/03/31 10:11:18;;;;;;;1999.90;999.90;;;15.10;99.90;;;;;;5032746;28;20403;-70
2023/03/31 10:13:48;;;;;;;1999.90;999.90;;;15.20;99.90;;;;;;5032673;28;20466;-70
2023/03/31 10:16:43;;;;;;;1999.90;999.90;;;15.20;99.90;;;;;;5032643;28;20645;-70
2023/03/31 10:19:31;;;;;;;1999.90;999.90;;;15.40;99.90;;;;;;5032586;28;20464;-70
2023/03/31 10:22:27;;;;;;;1999.90;999.90;;;15.40;99.90;;;;;;5032511;28;20404;-71
2023/03/31 10:24:52;;;;;;;1999.90;999.90;;;15.40;99.90;;;;;;5032388;28;20404;-70
2023/03/31 10:27:28;;;;;;;1999.90;999.90;;;15.40;99.90;;;;;;5032158;28;20457;-70
2023/03/31 10:29:56;;;;;;;1999.90;999.90;;;15.30;99.90;;;;;;5032410;28;20181;-70
2023/03/31 10:32:40;;;;;;;1999.90;999.90;;;15.10;99.90;;;;;;5032345;28;20437;-70
2023/03/31 10:35:21;;;;;;;1999.90;999.90;;;14.90;99.90;;;;;;5032241;28;20408;-70
2023/03/31 10:37:54;;;;;;;1999.90;999.90;;;14.80;99.90;;;;;;5031959;28;20432;-70
2023/03/31 10:40:24;;;;;;;1999.90;999.90;;;14.80;99.90;;;;;;5032271;28;20404;-70
2023/03/31 10:43:18;;;;;;;1999.90;999.90;;;14.70;99.90;;;;;;5032224;28;20403;-70
2023/03/31 10:45:53;;;;;;;1999.90;999.90;;;14.60;99.90;;;;;;5031923;28;20506;-70
2023/03/31 10:48:26;;;;;;;1999.90;999.90;;;14.60;99.90;;;;;;5031892;28;20461;-69
2023/03/31 10:50:55;;;;;;;1999.90;999.90;;;14.50;99.90;;;;;;5032119;28;20395;-70
2023/03/31 10:53:21;;;;;;;1999.90;999.90;;;14.20;99.90;;;;;;5031872;28;20913;-71
2023/03/31 10:56:07;;;;;;;1999.90;999.90;;;13.20;99.90;;;;;;5031963;28;20500;-70
2023/03/31 10:58:38;;;;;;;1999.90;999.90;;;12.10;99.90;;;;;;5031961;28;20459;-71
2023/03/31 11:01:28;;;;;;;1999.90;999.90;;;11.40;99.90;;;;;;5031892;28;20482;-71
2023/03/31 11:04:01;;;;;;;1999.90;999.90;;;11.10;99.90;;;;;;5031820;28;20403;-71
2023/03/31 11:06:37;;;;;;;1999.90;999.90;;;11.20;99.90;;;;;;5031737;28;20901;-71
2023/03/31 11:09:26;;;;;;;1999.90;999.90;;;11.20;99.90;;;;;;5031825;28;20426;-71
2023/03/31 11:12:30;;;;;;;1999.90;999.90;;;11.30;99.90;;;;;;5032156;28;20402;-71
2023/03/31 11:15:14;;;;;;;1999.90;999.90;;;11.70;99.90;;;;;;5031823;28;20494;-71
2023/03/31 11:17:46;;;;;;;1999.90;999.90;;;12.20;99.90;;;;;;5031843;28;20469;-71
2023/03/31 11:20:14;;;;;;;1999.90;999.90;;;12.50;99.90;;;;;;5032084;28;20425;-71
2023/03/31 11:22:47;;;;;;;1999.90;999.90;;;12.90;99.90;;;;;;5031795;28;20913;-71
2023/03/31 11:25:28;;;;;;;1999.90;999.90;;;13.20;99.90;;;;;;5032252;28;20421;-71
2023/03/31 11:28:27;;;;;;;1999.90;999.90;;;13.50;99.90;;;;;;5031429;28;21053;-71
2023/03/31 11:31:01;;;;;;;1999.90;999.90;;;13.80;99.90;;;;;;5031782;28;20407;-71
2023/03/31 11:33:29;;;;;;;1999.90;999.90;;;14.00;99.90;;;;;;5031473;28;20402;-71
2023/03/31 11:36:04;;;;;;;1999.90;999.90;;;14.20;99.90;;;;;;5031515;28;20496;-71
2023/03/31 11:39:02;;;;;;;1999.90;999.90;;;14.50;99.90;;;;;;5031687;28;20479;-71
2023/03/31 11:41:38;;;;;;;1999.90;999.90;;;14.70;99.90;;;;;;5023641;28;20423;-71
2023/03/31 11:44:08;;;;;;;1999.90;999.90;;;14.70;99.90;;;;;;5030320;28;20434;-71
2023/03/31 11:46:56;;;;;;;1999.90;999.90;;;14.80;99.90;;;;;;5031163;28;20409;-70
2023/03/31 11:49:31;;;;;;;1999.90;999.90;;;14.80;99.90;;;;;;5034968;28;20459;-71
2023/03/31 11:52:01;;;;;;;1999.90;999.90;;;14.80;99.90;;;;;;5035321;28;20394;-71
2023/03/31 11:54:35;;;;;;;1999.90;999.90;;;14.90;99.90;;;;;;5035114;28;20494;-71
2023/03/31 11:57:12;;;;;;;1999.90;999.90;;;15.10;99.90;;;;;;5035132;28;20426;-71
2023/03/31 11:59:40;;;;;;;1999.90;999.90;;;15.30;99.90;;;;;;5035198;28;20407;-71
2023/03/31 12:02:28;;;;;;;1999.90;999.90;;;15.40;99.90;;;;;;5035308;28;20940;-71
2023/03/31 12:04:56;;;;;;;1999.90;999.90;;;15.50;99.90;;;;;;5029208;28;20481;-71
2023/03/31 12:07:53;;;;;;;1999.90;999.90;;;15.40;99.90;;;;;;5014938;28;20457;-71
2023/03/31 12:10:41;;;;;;;1999.90;999.90;;;15.40;99.90;;;;;;5000829;28;20420;-71
2023/03/31 12:13:35;;;;;;;1999.90;999.90;;;15.60;99.90;;;;;;5015034;28;20436;-71
2023/03/31 12:16:12;;;;;;;1999.90;999.90;;;15.60;99.90;;;;;;5014966;28;20435;-71
2023/03/31 12:18:55;;;;;;;1999.90;999.90;;;15.40;99.90;;;;;;5015036;28;20433;-71